Hickory Valley, Louisiana
Current Conditions -  °F | °C
As of 7:15 PM on Thursday 27 Nov 2014 (Local Time) from KRSN Reporting Station
Clear Clear  
Wind Chill:   Ceiling: Unl
Heat Index:   Visibility: 10mi
Dew Point:   Wind: 0mph
Humidity: 94%   Direction: NA
Pressure: 30.5"   Gusts: NA
Location:  32.0547°N, 92.4144°W
Report Text: KRSN 280115Z AUTO 00000KT 10SM CLR 04/03 A3050 RMK AO2 T00350026
Loading
Personal Weather Stations






























Interactive Weather Map New forecast layout! Learn more

10-Day Weather Forecast

Advertisements
Track Severe Weather on mobile